createdAt,value
2023-05-17T00:02:06.352Z,13.64
2023-05-17T00:04:33.723Z,13.64
2023-05-17T00:07:00.520Z,13.63
2023-05-17T00:09:27.116Z,13.62
2023-05-17T00:11:53.682Z,13.63
2023-05-17T00:14:20.472Z,13.59
2023-05-17T00:16:47.029Z,13.55
2023-05-17T00:19:13.925Z,13.56
2023-05-17T00:21:42.414Z,13.52
2023-05-17T00:24:09.483Z,13.49
2023-05-17T00:26:36.661Z,13.46
2023-05-17T00:29:03.662Z,13.42
2023-05-17T00:31:30.482Z,13.39
2023-05-17T00:33:57.149Z,13.33
2023-05-17T00:36:23.729Z,13.28
2023-05-17T00:38:50.377Z,13.24
2023-05-17T00:41:17.544Z,13.19
2023-05-17T00:43:44.189Z,13.15
2023-05-17T00:46:10.762Z,13.12
2023-05-17T00:48:37.787Z,13.05
2023-05-17T00:51:04.612Z,12.94
2023-05-17T00:53:31.274Z,12.89
2023-05-17T00:55:57.996Z,12.85
2023-05-17T00:58:24.691Z,12.83
2023-05-17T01:00:51.628Z,12.87
2023-05-17T01:03:18.582Z,12.96
2023-05-17T01:05:45.554Z,12.98
2023-05-17T01:08:12.156Z,12.96
2023-05-17T01:10:38.793Z,12.90
2023-05-17T01:13:25.691Z,12.86
2023-05-17T01:15:55.320Z,12.73
2023-05-17T01:18:25.700Z,12.62
2023-05-17T01:20:52.986Z,12.54
2023-05-17T01:23:22.716Z,12.46
2023-05-17T01:25:55.990Z,12.43
2023-05-17T01:28:23.352Z,12.44
2023-05-17T01:30:51.336Z,12.41
2023-05-17T01:33:18.810Z,12.34
2023-05-17T01:35:45.448Z,12.27
2023-05-17T01:38:12.140Z,12.19
2023-05-17T01:40:59.217Z,12.14
2023-05-17T01:43:39.609Z,12.11
2023-05-17T01:46:14.214Z,12.11
2023-05-17T01:48:43.733Z,12.13
2023-05-17T01:51:11.843Z,12.11
2023-05-17T01:53:39.606Z,11.99
2023-05-17T01:56:10.677Z,11.88
2023-05-17T01:58:44.895Z,11.76
2023-05-17T02:01:12.065Z,11.63
2023-05-17T02:03:38.685Z,11.54
2023-05-17T02:06:05.310Z,11.49
2023-05-17T02:08:31.884Z,11.45
2023-05-17T02:10:58.435Z,11.39
2023-05-17T02:13:25.110Z,11.35
2023-05-17T02:15:51.707Z,11.33
2023-05-17T02:18:18.491Z,11.31
2023-05-17T02:20:45.123Z,11.28
2023-05-17T02:23:11.762Z,11.35
2023-05-17T02:25:38.371Z,11.45
2023-05-17T02:28:05.164Z,11.57
2023-05-17T02:30:31.855Z,11.71
2023-05-17T02:32:58.666Z,11.81
2023-05-17T02:35:25.475Z,11.87
2023-05-17T02:37:52.165Z,11.93
2023-05-17T02:40:18.850Z,11.99
2023-05-17T02:42:45.551Z,12.10
2023-05-17T02:45:12.175Z,12.19
2023-05-17T02:47:38.872Z,12.27
2023-05-17T02:50:05.713Z,12.33
2023-05-17T02:52:32.271Z,12.40
2023-05-17T02:54:58.988Z,12.44
2023-05-17T02:57:25.649Z,12.46
2023-05-17T02:59:52.222Z,12.50
2023-05-17T03:02:18.860Z,12.57
2023-05-17T03:04:45.698Z,12.66
2023-05-17T03:07:12.794Z,12.74
2023-05-17T03:09:39.550Z,12.85
2023-05-17T03:12:06.397Z,12.93
2023-05-17T03:14:33.085Z,12.98
2023-05-17T03:16:59.710Z,13.05
2023-05-17T03:19:26.347Z,13.11
2023-05-17T03:21:53.085Z,13.16
2023-05-17T03:24:19.721Z,13.18
2023-05-17T03:26:46.300Z,13.22
2023-05-17T03:29:12.891Z,13.27
2023-05-17T03:31:39.509Z,13.30
2023-05-17T03:34:06.277Z,13.39
2023-05-17T03:36:34.375Z,13.44
2023-05-17T03:39:01.062Z,13.49
2023-05-17T03:41:27.684Z,13.56
2023-05-17T03:43:54.343Z,13.61
2023-05-17T03:46:21.080Z,13.67
2023-05-17T03:48:47.724Z,13.75
2023-05-17T03:51:14.571Z,13.82
2023-05-17T03:53:43.499Z,13.88
2023-05-17T03:56:10.580Z,13.98
2023-05-17T03:58:37.211Z,14.04
2023-05-17T04:01:04.434Z,14.10
2023-05-17T04:03:31.183Z,14.18
2023-05-17T04:06:06.211Z,14.25
2023-05-17T04:08:33.989Z,14.32
2023-05-17T04:11:06.911Z,14.40
2023-05-17T04:13:33.495Z,14.46
2023-05-17T04:16:00.102Z,14.54
2023-05-17T04:18:26.783Z,14.63
2023-05-17T04:20:54.958Z,14.73
2023-05-17T04:23:21.612Z,14.81
2023-05-17T04:25:48.207Z,14.91
2023-05-17T04:28:14.936Z,14.98
2023-05-17T04:30:46.604Z,15.05
2023-05-17T04:33:14.439Z,15.14
2023-05-17T04:35:42.498Z,15.21
2023-05-17T04:38:09.639Z,15.28
2023-05-17T04:40:36.989Z,15.34
2023-05-17T04:43:03.930Z,15.42
2023-05-17T04:45:30.910Z,15.49
2023-05-17T04:47:57.580Z,15.57
2023-05-17T04:50:24.238Z,15.68
2023-05-17T04:52:50.841Z,15.76
2023-05-17T04:55:17.489Z,15.84
2023-05-17T04:57:44.195Z,15.92
2023-05-17T05:00:11.119Z,16.00
2023-05-17T05:02:38.308Z,16.07
2023-05-17T05:05:06.799Z,16.14
2023-05-17T05:07:33.649Z,16.20
2023-05-17T05:10:00.305Z,16.23
2023-05-17T05:12:26.955Z,16.29
2023-05-17T05:14:53.545Z,16.38
2023-05-17T05:17:20.276Z,16.46
2023-05-17T05:19:47.049Z,16.52
2023-05-17T05:22:13.650Z,16.58
2023-05-17T05:24:40.251Z,16.65
2023-05-17T05:27:07.302Z,16.71
2023-05-17T05:29:34.000Z,16.78
2023-05-17T05:32:00.660Z,16.87
2023-05-17T05:34:28.584Z,16.94
2023-05-17T05:36:55.195Z,17.00
2023-05-17T05:39:21.881Z,17.08
2023-05-17T05:41:48.666Z,17.14
2023-05-17T05:44:15.286Z,17.22
2023-05-17T05:46:41.907Z,17.26
2023-05-17T05:49:08.500Z,17.32
2023-05-17T05:51:35.298Z,17.39
2023-05-17T05:54:01.987Z,17.47
2023-05-17T05:56:28.655Z,17.54
2023-05-17T05:58:55.962Z,17.60
2023-05-17T06:01:22.569Z,17.65
2023-05-17T06:03:49.204Z,17.69
2023-05-17T06:06:18.493Z,17.72
2023-05-17T06:08:47.202Z,17.77
2023-05-17T06:11:14.290Z,17.83
2023-05-17T06:13:40.844Z,17.92
2023-05-17T06:16:07.440Z,18.01
2023-05-17T06:18:34.151Z,18.06
2023-05-17T06:21:01.036Z,18.04
2023-05-17T06:23:27.586Z,18.04
2023-05-17T06:25:54.222Z,18.08
2023-05-17T06:28:20.803Z,18.19
2023-05-17T06:30:47.392Z,18.28
2023-05-17T06:33:14.123Z,18.33
2023-05-17T06:35:51.636Z,18.38
2023-05-17T06:38:21.968Z,18.47
2023-05-17T06:40:52.091Z,18.48
2023-05-17T06:43:18.733Z,18.55
2023-05-17T06:45:45.396Z,18.50
2023-05-17T06:48:12.521Z,18.50
2023-05-17T06:50:39.238Z,18.50
2023-05-17T06:53:05.830Z,18.50
2023-05-17T06:55:32.452Z,18.53
2023-05-17T06:58:00.494Z,18.54
2023-05-17T07:00:27.597Z,18.56
2023-05-17T07:02:54.435Z,18.64
2023-05-17T07:05:21.771Z,18.67
2023-05-17T07:07:48.600Z,18.64
2023-05-17T07:10:15.372Z,18.66
2023-05-17T07:12:42.192Z,18.67
2023-05-17T07:15:09.000Z,18.72
2023-05-17T07:17:35.689Z,18.81
2023-05-17T07:20:02.729Z,18.87
2023-05-17T07:22:30.532Z,18.96
2023-05-17T07:24:57.198Z,19.03
2023-05-17T07:27:23.938Z,19.08
2023-05-17T07:29:50.568Z,19.15
2023-05-17T07:32:18.085Z,19.19
2023-05-17T07:34:45.174Z,19.15
2023-05-17T07:37:11.905Z,19.15
2023-05-17T07:39:38.519Z,19.13
2023-05-17T07:42:06.353Z,19.14
2023-05-17T07:44:32.966Z,19.13
2023-05-17T07:46:59.693Z,19.11
2023-05-17T07:49:27.472Z,19.14
2023-05-17T07:51:57.550Z,19.26
2023-05-17T07:54:25.342Z,19.38
2023-05-17T07:56:53.273Z,19.51
2023-05-17T07:59:19.906Z,19.67
2023-05-17T08:01:46.602Z,19.74
2023-05-17T08:04:14.456Z,19.79
2023-05-17T08:06:41.539Z,19.85
2023-05-17T08:09:08.115Z,19.79
2023-05-17T08:11:35.284Z,19.84
2023-05-17T08:14:01.963Z,19.92
2023-05-17T08:16:28.591Z,19.95
2023-05-17T08:18:55.453Z,19.92
2023-05-17T08:21:22.788Z,19.93
2023-05-17T08:23:49.404Z,19.98
2023-05-17T08:26:16.041Z,20.13
2023-05-17T08:28:42.852Z,20.18
2023-05-17T08:31:09.570Z,20.18
2023-05-17T08:33:36.658Z,20.20
2023-05-17T08:36:08.214Z,20.28
2023-05-17T08:38:35.533Z,20.35
2023-05-17T08:41:03.109Z,20.43
2023-05-17T08:43:30.914Z,20.50
2023-05-17T08:45:58.248Z,20.51
2023-05-17T08:48:26.608Z,20.47
2023-05-17T08:50:54.367Z,20.51
2023-05-17T08:53:21.087Z,20.60
2023-05-17T08:55:50.248Z,20.65
2023-05-17T08:58:21.466Z,20.72
2023-05-17T09:00:49.955Z,20.83
2023-05-17T09:03:18.335Z,20.79
2023-05-17T09:05:45.677Z,20.72
2023-05-17T09:08:14.229Z,20.62
2023-05-17T09:10:43.068Z,20.57
2023-05-17T09:13:12.498Z,20.63
2023-05-17T09:15:42.487Z,20.72
2023-05-17T09:18:10.982Z,20.88
2023-05-17T09:20:39.086Z,20.84
2023-05-17T09:23:06.778Z,20.85
2023-05-17T09:25:33.441Z,20.96
2023-05-17T09:28:04.520Z,21.02
2023-05-17T09:30:32.073Z,21.02
2023-05-17T09:33:04.915Z,21.07
2023-05-17T09:35:31.926Z,21.14
2023-05-17T09:38:08.980Z,21.17
2023-05-17T09:40:42.672Z,21.20
2023-05-17T09:43:09.910Z,21.37
2023-05-17T09:45:36.787Z,21.49
2023-05-17T09:48:13.917Z,21.54
2023-05-17T09:50:44.704Z,21.69
2023-05-17T09:53:30.277Z,21.78
2023-05-17T09:55:58.656Z,21.88
2023-05-17T09:58:26.804Z,22.41
2023-05-17T10:00:54.248Z,23.38
2023-05-17T10:03:22.457Z,24.27
2023-05-17T10:05:51.449Z,24.96
2023-05-17T10:08:21.961Z,25.37
2023-05-17T10:10:49.585Z,25.59
2023-05-17T10:13:19.488Z,26.12
2023-05-17T10:15:46.556Z,26.59
2023-05-17T10:18:13.991Z,27.00
2023-05-17T10:20:40.879Z,27.01
2023-05-17T10:23:08.325Z,27.30
2023-05-17T10:25:35.080Z,27.60
2023-05-17T10:28:02.444Z,27.96
2023-05-17T10:30:29.272Z,28.37
2023-05-17T10:32:56.829Z,28.38
2023-05-17T10:35:24.457Z,28.45
2023-05-17T10:37:51.259Z,28.61
2023-05-17T10:40:20.315Z,28.75
2023-05-17T10:42:50.931Z,29.02
2023-05-17T10:45:20.183Z,28.53
2023-05-17T10:47:46.879Z,28.58
2023-05-17T10:50:15.105Z,29.00
2023-05-17T10:52:48.951Z,29.07
2023-05-17T10:55:22.627Z,28.96
2023-05-17T10:58:18.833Z,29.01
2023-05-17T11:00:47.485Z,29.25
2023-05-17T11:03:14.047Z,29.41
2023-05-17T11:05:43.674Z,29.43
2023-05-17T11:08:17.376Z,29.57
2023-05-17T11:11:10.576Z,29.74
2023-05-17T11:13:47.509Z,30.15
2023-05-17T11:16:18.063Z,30.55
2023-05-17T11:18:48.908Z,30.78
2023-05-17T11:21:16.409Z,30.73
2023-05-17T11:23:44.288Z,30.54
2023-05-17T11:26:24.218Z,30.36
2023-05-17T11:29:02.156Z,30.62
2023-05-17T11:31:35.649Z,30.92
2023-05-17T11:34:05.766Z,30.75
2023-05-17T11:36:48.452Z,30.51
2023-05-17T11:39:15.685Z,30.41
2023-05-17T11:41:52.111Z,30.38
2023-05-17T11:44:25.425Z,30.10
2023-05-17T11:46:52.264Z,29.99
2023-05-17T11:49:33.854Z,29.91
2023-05-17T11:52:02.344Z,30.06
2023-05-17T11:54:30.532Z,29.98
2023-05-17T11:56:58.145Z,30.09
2023-05-17T11:59:24.856Z,30.32
2023-05-17T12:01:51.803Z,30.50
2023-05-17T12:04:28.484Z,30.60
2023-05-17T12:06:55.860Z,31.02
2023-05-17T12:09:23.168Z,31.33
2023-05-17T12:11:50.111Z,31.74
2023-05-17T12:14:17.972Z,31.80
2023-05-17T12:16:45.248Z,31.62
2023-05-17T12:19:20.167Z,31.42
2023-05-17T12:21:47.251Z,31.47
2023-05-17T12:24:14.045Z,31.57
2023-05-17T12:26:47.118Z,31.97
2023-05-17T12:29:14.918Z,32.34
2023-05-17T12:31:47.382Z,32.49
2023-05-17T12:34:14.389Z,32.19
2023-05-17T12:36:41.516Z,32.21
2023-05-17T12:39:10.004Z,31.92
2023-05-17T12:41:38.672Z,31.37
2023-05-17T12:44:15.412Z,31.19
2023-05-17T12:46:43.611Z,30.73
2023-05-17T12:49:11.920Z,30.69
2023-05-17T12:51:45.810Z,30.51
2023-05-17T12:54:13.156Z,30.76
2023-05-17T12:56:42.656Z,31.15
2023-05-17T12:59:17.266Z,30.49
2023-05-17T13:01:45.218Z,30.55
2023-05-17T13:04:12.383Z,30.81
2023-05-17T13:06:49.561Z,31.10
2023-05-17T13:09:18.570Z,31.10
2023-05-17T13:11:52.309Z,31.01
2023-05-17T13:14:37.924Z,30.91
2023-05-17T13:17:05.557Z,30.51
2023-05-17T13:19:32.310Z,30.70
2023-05-17T13:21:59.101Z,30.97
2023-05-17T13:24:27.508Z,31.45
2023-05-17T13:26:54.332Z,31.85
2023-05-17T13:29:35.185Z,32.13
2023-05-17T13:32:06.679Z,32.33
2023-05-17T13:34:33.329Z,31.95
2023-05-17T13:36:59.997Z,31.55
2023-05-17T13:39:26.573Z,31.54
2023-05-17T13:41:53.523Z,31.61
2023-05-17T13:44:20.123Z,31.64
2023-05-17T13:46:46.742Z,31.46
2023-05-17T13:49:14.198Z,31.38
2023-05-17T13:51:40.866Z,31.29
2023-05-17T13:54:07.593Z,31.44
2023-05-17T13:56:34.321Z,31.84
2023-05-17T13:59:01.244Z,32.20
2023-05-17T14:01:27.832Z,32.47
2023-05-17T14:03:55.482Z,32.15
2023-05-17T14:06:22.590Z,31.70
2023-05-17T14:08:49.662Z,31.64
2023-05-17T14:11:16.593Z,31.61
2023-05-17T14:13:43.372Z,31.40
2023-05-17T14:16:10.021Z,30.75
2023-05-17T14:18:37.359Z,30.73
2023-05-17T14:21:04.438Z,30.89
2023-05-17T14:23:31.159Z,30.95
2023-05-17T14:25:57.902Z,30.97
2023-05-17T14:28:24.613Z,30.79
2023-05-17T14:30:51.942Z,30.67
2023-05-17T14:33:18.786Z,30.93
2023-05-17T14:35:45.494Z,31.09
2023-05-17T14:38:12.361Z,31.09
2023-05-17T14:40:38.958Z,30.90
2023-05-17T14:43:05.574Z,30.73
2023-05-17T14:45:32.169Z,30.36
2023-05-17T14:47:58.878Z,29.85
2023-05-17T14:50:25.779Z,29.51
2023-05-17T14:52:52.576Z,29.56
2023-05-17T14:55:19.997Z,29.82
2023-05-17T14:57:47.456Z,30.16
2023-05-17T15:00:14.294Z,30.38
2023-05-17T15:02:40.941Z,30.21
2023-05-17T15:05:07.864Z,29.94
2023-05-17T15:07:34.690Z,29.75
2023-05-17T15:10:01.561Z,29.42
2023-05-17T15:12:28.440Z,28.97
2023-05-17T15:14:55.395Z,28.47
2023-05-17T15:17:23.046Z,28.06
2023-05-17T15:19:49.938Z,27.66
2023-05-17T15:22:17.197Z,27.12
2023-05-17T15:24:44.798Z,26.57
2023-05-17T15:27:15.463Z,26.12
2023-05-17T15:29:42.400Z,25.64
2023-05-17T15:32:09.032Z,25.32
2023-05-17T15:34:36.668Z,25.05
2023-05-17T15:37:03.420Z,24.82
2023-05-17T15:39:30.054Z,24.62
2023-05-17T15:41:56.711Z,24.40
2023-05-17T15:44:23.984Z,24.19
2023-05-17T15:46:50.874Z,24.16
2023-05-17T15:49:17.562Z,24.05
2023-05-17T15:51:44.190Z,23.93
2023-05-17T15:54:11.007Z,23.81
2023-05-17T15:56:38.420Z,23.63
2023-05-17T15:59:05.597Z,23.53
2023-05-17T16:01:32.338Z,23.46
2023-05-17T16:03:59.006Z,23.39
2023-05-17T16:06:25.920Z,23.31
2023-05-17T16:08:53.044Z,23.18
2023-05-17T16:11:19.725Z,23.11
2023-05-17T16:13:46.282Z,23.03
2023-05-17T16:16:14.612Z,22.98
2023-05-17T16:18:41.478Z,22.95
2023-05-17T16:21:08.358Z,22.90
2023-05-17T16:23:35.068Z,22.81
2023-05-17T16:26:01.725Z,22.74
2023-05-17T16:28:32.952Z,22.67
2023-05-17T16:30:59.754Z,22.61
2023-05-17T16:33:26.633Z,22.51
2023-05-17T16:35:53.474Z,22.42
2023-05-17T16:38:20.123Z,22.35
2023-05-17T16:40:46.927Z,22.27
2023-05-17T16:43:16.077Z,22.22
2023-05-17T16:45:46.444Z,22.15
2023-05-17T16:48:14.070Z,22.06
2023-05-17T16:50:41.731Z,22.00
2023-05-17T16:53:08.345Z,21.90
2023-05-17T16:55:36.341Z,21.82
2023-05-17T16:58:04.132Z,21.74
2023-05-17T17:00:33.800Z,21.67
2023-05-17T17:03:00.705Z,21.60
2023-05-17T17:05:27.946Z,21.48
2023-05-17T17:07:55.213Z,21.38
2023-05-17T17:10:22.074Z,21.26
2023-05-17T17:12:49.499Z,21.15
2023-05-17T17:15:16.195Z,21.05
2023-05-17T17:17:43.360Z,20.95
2023-05-17T17:20:10.582Z,20.86
2023-05-17T17:22:37.230Z,20.79
2023-05-17T17:25:03.971Z,20.77
2023-05-17T17:27:30.727Z,20.77
2023-05-17T17:29:57.391Z,20.79
2023-05-17T17:32:24.135Z,20.75
2023-05-17T17:34:50.968Z,20.72
2023-05-17T17:37:17.961Z,20.68
2023-05-17T17:39:44.612Z,20.62
2023-05-17T17:42:11.299Z,20.55
2023-05-17T17:44:37.896Z,20.49
2023-05-17T17:47:04.649Z,20.39
2023-05-17T17:49:31.354Z,20.31
2023-05-17T17:51:58.466Z,20.22
2023-05-17T17:54:25.211Z,20.14
2023-05-17T17:56:52.392Z,20.00
2023-05-17T17:59:19.099Z,19.83
2023-05-17T18:01:45.921Z,19.67
2023-05-17T18:04:14.567Z,19.50
2023-05-17T18:06:42.180Z,19.35
2023-05-17T18:09:08.867Z,19.22
2023-05-17T18:11:35.561Z,19.09
2023-05-17T18:14:05.406Z,18.97
2023-05-17T18:16:32.092Z,18.85
2023-05-17T18:18:58.782Z,18.76
2023-05-17T18:21:25.552Z,18.67
2023-05-17T18:23:52.193Z,18.57
2023-05-17T18:26:18.795Z,18.45
2023-05-17T18:28:45.504Z,18.36
2023-05-17T18:31:13.822Z,18.29
2023-05-17T18:33:40.701Z,18.21
2023-05-17T18:36:07.477Z,18.12
2023-05-17T18:38:35.450Z,18.02
2023-05-17T18:41:02.107Z,17.93
2023-05-17T18:43:29.858Z,17.83
2023-05-17T18:45:56.561Z,17.71
2023-05-17T18:48:23.563Z,17.59
2023-05-17T18:50:50.228Z,17.48
2023-05-17T18:53:16.868Z,17.39
2023-05-17T18:55:43.677Z,17.33
2023-05-17T18:58:10.482Z,17.28
2023-05-17T19:00:37.168Z,17.24
2023-05-17T19:03:04.634Z,17.22
2023-05-17T19:05:31.492Z,17.19
2023-05-17T19:07:58.198Z,17.22
2023-05-17T19:10:24.848Z,17.32
2023-05-17T19:12:51.627Z,17.42
2023-05-17T19:15:19.247Z,17.51
2023-05-17T19:17:46.047Z,17.54
2023-05-17T19:20:13.246Z,17.59
2023-05-17T19:22:40.027Z,17.67
2023-05-17T19:25:07.011Z,17.70
2023-05-17T19:27:33.701Z,17.69
2023-05-17T19:30:00.684Z,17.72
2023-05-17T19:32:27.434Z,17.78
2023-05-17T19:34:54.959Z,17.82
2023-05-17T19:37:21.581Z,17.83
2023-05-17T19:39:48.222Z,17.75
2023-05-17T19:42:14.884Z,17.68
2023-05-17T19:44:41.565Z,17.62
2023-05-17T19:47:08.155Z,17.53
2023-05-17T19:49:34.833Z,17.48
2023-05-17T19:52:01.549Z,17.38
2023-05-17T19:54:31.357Z,17.25
2023-05-17T19:56:59.804Z,17.13
2023-05-17T19:59:26.491Z,17.04
2023-05-17T20:01:53.169Z,16.94
2023-05-17T20:04:19.961Z,16.86
2023-05-17T20:06:46.684Z,16.76
2023-05-17T20:09:13.521Z,16.65
2023-05-17T20:11:40.248Z,16.57
2023-05-17T20:14:06.954Z,16.54
2023-05-17T20:16:33.697Z,16.44
2023-05-17T20:19:01.168Z,16.35
2023-05-17T20:21:28.108Z,16.26
2023-05-17T20:24:01.432Z,16.19
2023-05-17T20:26:31.734Z,16.15
2023-05-17T20:28:59.196Z,16.15
2023-05-17T20:31:26.306Z,16.14
2023-05-17T20:33:53.159Z,16.16
2023-05-17T20:36:19.934Z,16.13
2023-05-17T20:38:46.912Z,16.11
2023-05-17T20:41:15.900Z,16.14
2023-05-17T20:43:45.976Z,16.27
2023-05-17T20:46:15.316Z,16.36
2023-05-17T20:48:43.100Z,16.43
2023-05-17T20:51:10.374Z,16.48
2023-05-17T20:53:37.413Z,16.46
2023-05-17T20:56:04.405Z,16.36
2023-05-17T20:58:31.146Z,16.26
2023-05-17T21:00:58.190Z,16.23
2023-05-17T21:03:28.365Z,16.18
2023-05-17T21:05:55.430Z,16.07
2023-05-17T21:08:22.162Z,15.95
2023-05-17T21:10:52.017Z,15.85
2023-05-17T21:13:18.675Z,15.75
2023-05-17T21:15:45.462Z,15.67
2023-05-17T21:18:12.158Z,15.62
2023-05-17T21:20:39.431Z,15.53
2023-05-17T21:23:06.057Z,15.45
2023-05-17T21:25:34.087Z,15.35
2023-05-17T21:28:00.971Z,15.34
2023-05-17T21:30:27.708Z,15.34
2023-05-17T21:32:54.440Z,15.31
2023-05-17T21:35:21.404Z,15.28
2023-05-17T21:37:47.986Z,15.21
2023-05-17T21:40:14.873Z,15.22
2023-05-17T21:42:41.713Z,15.22
2023-05-17T21:45:08.578Z,15.20
2023-05-17T21:47:36.158Z,15.18
2023-05-17T21:50:03.255Z,15.10
2023-05-17T21:52:30.766Z,15.02
2023-05-17T21:54:57.482Z,14.95
2023-05-17T21:57:24.069Z,14.91
2023-05-17T21:59:50.993Z,14.85
2023-05-17T22:02:17.987Z,14.80
2023-05-17T22:04:44.702Z,14.74
2023-05-17T22:07:12.090Z,14.72
2023-05-17T22:09:38.804Z,14.68
2023-05-17T22:12:08.539Z,14.62
2023-05-17T22:14:36.571Z,14.68
2023-05-17T22:17:08.832Z,14.84
2023-05-17T22:19:40.679Z,15.05
2023-05-17T22:22:08.295Z,15.16
2023-05-17T22:24:35.192Z,15.21
2023-05-17T22:27:02.418Z,15.28
2023-05-17T22:29:29.180Z,15.35
2023-05-17T22:31:55.939Z,15.43
2023-05-17T22:34:23.036Z,15.46
2023-05-17T22:36:49.680Z,15.44
2023-05-17T22:39:16.278Z,15.37
2023-05-17T22:41:42.972Z,15.30
2023-05-17T22:44:09.552Z,15.23
2023-05-17T22:46:37.952Z,15.13
2023-05-17T22:49:04.654Z,15.01
2023-05-17T22:51:35.010Z,14.89
2023-05-17T22:54:02.316Z,14.77
2023-05-17T22:56:29.021Z,14.65
2023-05-17T22:58:55.691Z,14.57
2023-05-17T23:01:22.384Z,14.52
2023-05-17T23:03:49.017Z,14.46
2023-05-17T23:06:15.774Z,14.43
2023-05-17T23:08:42.454Z,14.57
2023-05-17T23:11:09.150Z,14.69
2023-05-17T23:13:36.447Z,14.75
2023-05-17T23:16:03.181Z,14.76
2023-05-17T23:18:29.800Z,14.73
2023-05-17T23:20:56.436Z,14.70
2023-05-17T23:23:23.146Z,14.66
2023-05-17T23:25:50.793Z,14.58
2023-05-17T23:28:18.725Z,14.49
2023-05-17T23:30:48.528Z,14.44
2023-05-17T23:33:15.444Z,14.38
2023-05-17T23:35:42.098Z,14.31
2023-05-17T23:38:08.759Z,14.22
2023-05-17T23:40:37.020Z,14.15
2023-05-17T23:43:04.338Z,14.14
2023-05-17T23:45:31.082Z,14.12
2023-05-17T23:48:00.720Z,14.10
2023-05-17T23:50:27.650Z,14.10
2023-05-17T23:52:54.329Z,14.19
2023-05-17T23:55:22.497Z,14.29
2023-05-17T23:57:49.357Z,14.36
